createdAt,value
2023-09-08T00:00:45.983Z,66.00
2023-09-08T00:03:15.255Z,65.90
2023-09-08T00:05:43.736Z,65.70
2023-09-08T00:08:11.529Z,65.60
2023-09-08T00:10:39.270Z,65.40
2023-09-08T00:13:07.110Z,65.30
2023-09-08T00:15:35.796Z,65.00
2023-09-08T00:18:03.670Z,64.80
2023-09-08T00:20:32.946Z,64.80
2023-09-08T00:23:00.773Z,64.60
2023-09-08T00:25:28.506Z,64.40
2023-09-08T00:27:56.221Z,64.20
2023-09-08T00:30:23.989Z,64.10
2023-09-08T00:32:51.965Z,63.90
2023-09-08T00:35:19.943Z,63.90
2023-09-08T00:37:49.256Z,63.70
2023-09-08T00:40:17.068Z,63.40
2023-09-08T00:42:44.830Z,63.40
2023-09-08T00:45:12.818Z,63.20
2023-09-08T00:47:40.726Z,63.10
2023-09-08T00:50:09.393Z,63.00
2023-09-08T00:52:37.500Z,62.80
2023-09-08T00:55:07.246Z,62.70
2023-09-08T00:57:34.955Z,62.70
2023-09-08T01:00:03.087Z,62.70
2023-09-08T01:02:31.100Z,62.50
2023-09-08T01:05:00.806Z,62.40
2023-09-08T01:07:28.790Z,62.20
2023-09-08T01:09:56.598Z,62.20
2023-09-08T01:12:26.167Z,62.10
2023-09-08T01:14:54.000Z,62.00
2023-09-08T01:17:21.710Z,62.00
2023-09-08T01:19:49.556Z,62.00
2023-09-08T01:22:38.361Z,61.90
2023-09-08T01:25:17.343Z,61.60
2023-09-08T01:27:47.776Z,61.90
2023-09-08T01:30:15.531Z,61.90
2023-09-08T01:32:43.315Z,62.00
2023-09-08T01:35:11.048Z,62.00
2023-09-08T01:37:41.048Z,62.00
2023-09-08T01:40:11.265Z,61.80
2023-09-08T01:42:39.215Z,61.60
2023-09-08T01:45:08.902Z,61.80
2023-09-08T01:47:36.731Z,61.70
2023-09-08T01:50:04.956Z,61.80
2023-09-08T01:52:32.666Z,61.70
2023-09-08T01:55:00.454Z,61.80
2023-09-08T01:57:31.214Z,61.60
2023-09-08T01:59:59.004Z,62.50
2023-09-08T02:02:27.063Z,61.60
2023-09-08T02:04:54.870Z,61.60
2023-09-08T02:07:22.882Z,61.80
2023-09-08T02:09:53.138Z,62.10
2023-09-08T02:12:21.515Z,61.60
2023-09-08T02:14:53.050Z,61.70
2023-09-08T02:17:20.870Z,61.60
2023-09-08T02:19:48.680Z,61.50
2023-09-08T02:22:16.449Z,61.50
2023-09-08T02:24:44.211Z,61.50
2023-09-08T02:27:12.263Z,61.50
2023-09-08T02:29:40.013Z,61.60
2023-09-08T02:32:09.140Z,61.30
2023-09-08T02:34:38.542Z,61.40
2023-09-08T02:37:07.839Z,61.50
2023-09-08T02:39:36.546Z,61.50
2023-09-08T02:42:04.953Z,61.60
2023-09-08T02:44:34.142Z,61.50
2023-09-08T02:47:01.910Z,61.50
2023-09-08T02:49:31.102Z,61.50
2023-09-08T02:51:58.891Z,61.50
2023-09-08T02:54:26.608Z,61.40
2023-09-08T02:56:54.385Z,61.40
2023-09-08T02:59:22.171Z,61.40
2023-09-08T03:01:49.992Z,61.50
2023-09-08T03:04:18.176Z,61.70
2023-09-08T03:06:47.248Z,61.50
2023-09-08T03:09:15.099Z,61.60
2023-09-08T03:11:42.932Z,61.80
2023-09-08T03:14:10.745Z,61.90
2023-09-08T03:16:38.606Z,61.80
2023-09-08T03:19:06.458Z,61.90
2023-09-08T03:21:34.271Z,61.70
2023-09-08T03:24:03.343Z,61.80
2023-09-08T03:26:31.241Z,61.60
2023-09-08T03:29:01.746Z,61.70
2023-09-08T03:31:29.608Z,61.80
2023-09-08T03:33:57.976Z,61.90
2023-09-08T03:36:26.396Z,61.80
2023-09-08T03:38:54.212Z,61.90
2023-09-08T03:41:23.314Z,61.80
2023-09-08T03:43:51.256Z,61.90
2023-09-08T03:46:19.310Z,61.80
2023-09-08T03:48:47.112Z,61.90
2023-09-08T03:51:14.871Z,61.90
2023-09-08T03:53:42.656Z,61.80
2023-09-08T03:56:10.428Z,61.90
2023-09-08T03:58:39.622Z,61.80
2023-09-08T04:01:07.444Z,61.90
2023-09-08T04:03:35.478Z,61.90
2023-09-08T04:06:04.273Z,61.90
2023-09-08T04:08:32.083Z,61.90
2023-09-08T04:11:00.132Z,61.90
2023-09-08T04:13:28.468Z,61.90
2023-09-08T04:15:57.738Z,62.00
2023-09-08T04:18:26.141Z,61.90
2023-09-08T04:20:54.065Z,62.10
2023-09-08T04:23:21.917Z,62.30
2023-09-08T04:25:49.683Z,62.00
2023-09-08T04:28:17.425Z,62.30
2023-09-08T04:30:45.226Z,62.20
2023-09-08T04:33:14.614Z,62.00
2023-09-08T04:35:42.399Z,62.00
2023-09-08T04:38:10.383Z,61.90
2023-09-08T04:40:38.341Z,62.00
2023-09-08T04:43:06.227Z,62.00
2023-09-08T04:45:34.867Z,62.00
2023-09-08T04:48:02.647Z,62.10
2023-09-08T04:50:32.431Z,62.10
2023-09-08T04:53:00.251Z,62.00
2023-09-08T04:55:28.641Z,62.10
2023-09-08T04:57:56.402Z,62.20
2023-09-08T05:00:25.702Z,62.20
2023-09-08T05:02:53.596Z,62.20
2023-09-08T05:05:21.509Z,62.30
2023-09-08T05:07:52.043Z,62.40
2023-09-08T05:10:21.238Z,62.20
2023-09-08T05:12:50.359Z,62.40
2023-09-08T05:15:18.337Z,62.30
2023-09-08T05:17:49.867Z,62.40
2023-09-08T05:20:19.847Z,62.40
2023-09-08T05:22:47.876Z,62.30
2023-09-08T05:25:17.181Z,62.40
2023-09-08T05:27:46.782Z,62.40
2023-09-08T05:30:15.211Z,62.50
2023-09-08T05:32:43.232Z,62.40
2023-09-08T05:35:11.272Z,62.50
2023-09-08T05:37:39.460Z,62.50
2023-09-08T05:40:09.478Z,62.50
2023-09-08T05:42:38.639Z,62.50
2023-09-08T05:45:07.611Z,62.50
2023-09-08T05:47:37.017Z,62.60
2023-09-08T05:50:05.528Z,62.60
2023-09-08T05:52:34.574Z,62.70
2023-09-08T05:55:04.219Z,62.60
2023-09-08T05:57:32.741Z,62.70
2023-09-08T06:00:02.071Z,62.60
2023-09-08T06:02:30.355Z,62.70
2023-09-08T06:04:58.438Z,62.80
2023-09-08T06:07:26.382Z,62.70
2023-09-08T06:09:54.226Z,62.70
2023-09-08T06:12:22.173Z,62.70
2023-09-08T06:14:50.060Z,62.80
2023-09-08T06:17:19.346Z,62.80
2023-09-08T06:19:47.622Z,62.80
2023-09-08T06:22:15.416Z,62.80
2023-09-08T06:24:44.468Z,62.80
2023-09-08T06:27:14.118Z,62.70
2023-09-08T06:29:44.474Z,62.80
2023-09-08T06:32:13.897Z,62.70
2023-09-08T06:34:45.340Z,62.70
2023-09-08T06:37:13.277Z,62.80
2023-09-08T06:39:41.569Z,62.80
2023-09-08T06:42:09.595Z,62.90
2023-09-08T06:44:38.979Z,63.00
2023-09-08T06:47:08.007Z,62.80
2023-09-08T06:49:37.007Z,63.00
2023-09-08T06:52:07.216Z,62.90
2023-09-08T06:54:34.949Z,62.80
2023-09-08T06:57:02.696Z,62.90
2023-09-08T06:59:30.495Z,62.80
2023-09-08T07:01:58.499Z,62.80
2023-09-08T07:04:26.700Z,62.80
2023-09-08T07:06:55.656Z,62.80
2023-09-08T07:09:25.223Z,62.80
2023-09-08T07:11:52.988Z,62.80
2023-09-08T07:14:20.756Z,62.80
2023-09-08T07:16:48.741Z,62.80
2023-09-08T07:19:16.641Z,62.90
2023-09-08T07:21:45.233Z,62.90
2023-09-08T07:24:13.210Z,62.80
2023-09-08T07:26:42.492Z,62.80
2023-09-08T07:29:10.478Z,62.80
2023-09-08T07:31:39.409Z,62.90
2023-09-08T07:34:07.448Z,63.00
2023-09-08T07:36:37.389Z,63.00
2023-09-08T07:39:05.879Z,63.00
2023-09-08T07:41:33.628Z,63.00
2023-09-08T07:44:02.911Z,63.00
2023-09-08T07:46:30.861Z,63.00
2023-09-08T07:49:00.096Z,63.00
2023-09-08T07:51:27.946Z,63.10
2023-09-08T07:53:57.160Z,63.10
2023-09-08T07:56:25.085Z,63.00
2023-09-08T07:58:52.912Z,63.00
2023-09-08T08:01:22.162Z,62.70
2023-09-08T08:03:49.931Z,63.00
2023-09-08T08:06:17.699Z,63.10
2023-09-08T08:08:45.505Z,63.00
2023-09-08T08:11:13.679Z,63.00
2023-09-08T08:13:41.449Z,63.00
2023-09-08T08:16:09.359Z,63.70
2023-09-08T08:18:38.782Z,63.00
2023-09-08T08:21:07.054Z,63.00
2023-09-08T08:23:35.024Z,62.90
2023-09-08T08:26:04.068Z,63.10
2023-09-08T08:28:31.835Z,63.90
2023-09-08T08:30:59.805Z,63.10
2023-09-08T08:33:27.788Z,63.00
2023-09-08T08:35:56.932Z,63.20
2023-09-08T08:38:24.704Z,63.10
2023-09-08T08:40:52.796Z,63.20
2023-09-08T08:43:20.975Z,63.20
2023-09-08T08:45:48.836Z,63.30
2023-09-08T08:48:16.766Z,63.30
2023-09-08T08:50:45.247Z,63.30
2023-09-08T08:53:14.866Z,63.30
2023-09-08T08:55:42.720Z,63.30
2023-09-08T08:58:10.498Z,63.30
2023-09-08T09:00:38.787Z,63.20
2023-09-08T09:03:14.785Z,63.30
2023-09-08T09:05:46.615Z,63.00
2023-09-08T09:08:17.076Z,63.00
2023-09-08T09:10:44.836Z,62.80
2023-09-08T09:13:12.653Z,62.60
2023-09-08T09:15:41.398Z,62.50
2023-09-08T09:18:10.125Z,62.50
2023-09-08T09:20:37.960Z,62.50
2023-09-08T09:23:05.915Z,62.50
2023-09-08T09:25:35.147Z,62.40
2023-09-08T09:28:04.293Z,62.40
2023-09-08T09:30:48.910Z,62.20
2023-09-08T09:33:17.042Z,61.80
2023-09-08T09:35:45.775Z,61.70
2023-09-08T09:38:13.632Z,61.70
2023-09-08T09:40:42.722Z,61.50
2023-09-08T09:43:10.735Z,61.10
2023-09-08T09:45:39.084Z,62.00
2023-09-08T09:48:08.261Z,61.00
2023-09-08T09:50:36.955Z,60.80
2023-09-08T09:53:10.041Z,60.60
2023-09-08T09:55:38.657Z,60.40
2023-09-08T09:58:07.817Z,60.20
2023-09-08T10:00:35.971Z,60.10
2023-09-08T10:03:04.805Z,60.00
2023-09-08T10:05:32.773Z,59.80
2023-09-08T10:08:00.680Z,59.90
2023-09-08T10:10:29.157Z,59.60
2023-09-08T10:12:57.733Z,59.60
2023-09-08T10:15:26.889Z,59.50
2023-09-08T10:17:56.116Z,59.40
2023-09-08T10:20:25.038Z,59.30
2023-09-08T10:22:55.801Z,59.30
2023-09-08T10:25:23.876Z,59.10
2023-09-08T10:27:51.625Z,59.10
2023-09-08T10:30:21.801Z,59.00
2023-09-08T10:32:51.581Z,59.00
2023-09-08T10:35:20.400Z,59.00
2023-09-08T10:37:48.296Z,59.00
2023-09-08T10:40:25.883Z,58.90
2023-09-08T10:43:08.400Z,58.80
2023-09-08T10:45:36.391Z,58.50
2023-09-08T10:48:05.818Z,58.70
2023-09-08T10:50:34.806Z,58.70
2023-09-08T10:53:18.719Z,58.70
2023-09-08T10:56:06.493Z,58.30
2023-09-08T10:58:39.821Z,58.50
2023-09-08T11:01:08.528Z,58.50
2023-09-08T11:03:48.676Z,58.60
2023-09-08T11:06:17.913Z,58.30
2023-09-08T11:08:46.264Z,58.50
2023-09-08T11:11:14.582Z,58.40
2023-09-08T11:13:42.369Z,58.40
2023-09-08T11:16:10.207Z,58.50
2023-09-08T11:18:38.236Z,58.50
2023-09-08T11:21:09.481Z,58.60
2023-09-08T11:23:37.569Z,58.40
2023-09-08T11:26:05.453Z,58.60
2023-09-08T11:28:33.315Z,58.80
2023-09-08T11:31:01.245Z,58.80
2023-09-08T11:33:29.216Z,58.40
2023-09-08T11:35:59.222Z,58.40
2023-09-08T11:38:29.067Z,58.40
2023-09-08T11:40:57.234Z,58.40
2023-09-08T11:43:24.970Z,58.10
2023-09-08T11:45:52.815Z,58.00
2023-09-08T11:48:20.664Z,57.90
2023-09-08T11:50:48.405Z,58.00
2023-09-08T11:53:20.822Z,59.20
2023-09-08T11:55:50.409Z,58.90
2023-09-08T11:58:18.616Z,58.80
2023-09-08T12:00:48.869Z,59.00
2023-09-08T12:03:17.539Z,59.40
2023-09-08T12:05:46.261Z,59.10
2023-09-08T12:08:14.223Z,58.90
2023-09-08T12:10:42.335Z,59.50
2023-09-08T12:13:11.604Z,58.90
2023-09-08T12:15:40.120Z,59.10
2023-09-08T12:18:09.058Z,59.40
2023-09-08T12:20:37.541Z,60.70
2023-09-08T12:23:06.409Z,62.30
2023-09-08T12:25:36.785Z,64.30
2023-09-08T12:28:06.873Z,64.30
2023-09-08T12:30:35.965Z,66.20
2023-09-08T12:33:04.166Z,66.70
2023-09-08T12:35:32.995Z,66.10
2023-09-08T12:38:01.842Z,67.70
2023-09-08T12:40:29.749Z,68.10
2023-09-08T12:43:05.759Z,68.30
2023-09-08T12:45:47.570Z,69.60
2023-09-08T12:48:15.422Z,68.60
2023-09-08T12:50:43.237Z,68.70
2023-09-08T12:53:10.953Z,68.10
2023-09-08T12:55:38.706Z,69.90
2023-09-08T12:58:06.409Z,69.80
2023-09-08T13:00:34.235Z,69.70
2023-09-08T13:03:04.004Z,71.90
2023-09-08T13:05:32.187Z,73.00
2023-09-08T13:08:01.043Z,72.20
2023-09-08T13:10:29.947Z,73.10
2023-09-08T13:12:57.913Z,74.30
2023-09-08T13:15:25.686Z,74.30
2023-09-08T13:17:53.493Z,74.50
2023-09-08T13:20:22.599Z,75.20
2023-09-08T13:22:50.528Z,75.00
2023-09-08T13:25:18.434Z,74.30
2023-09-08T13:27:48.811Z,73.70
2023-09-08T13:30:17.635Z,72.50
2023-09-08T13:32:46.714Z,72.60
2023-09-08T13:35:14.710Z,71.70
2023-09-08T13:37:43.953Z,71.20
2023-09-08T13:40:12.245Z,70.00
2023-09-08T13:42:40.036Z,67.70
2023-09-08T13:45:08.885Z,65.90
2023-09-08T13:47:40.128Z,65.40
2023-09-08T13:50:10.628Z,66.30
2023-09-08T13:52:42.795Z,65.40
2023-09-08T13:55:34.659Z,63.10
2023-09-08T13:58:02.089Z,63.20
2023-09-08T14:00:31.691Z,62.60
2023-09-08T14:03:05.307Z,63.20
2023-09-08T14:05:36.773Z,62.40
2023-09-08T14:08:09.141Z,61.60
2023-09-08T14:13:17.855Z,60.40
2023-09-08T14:15:45.710Z,61.30
2023-09-08T14:18:14.931Z,59.80
2023-09-08T14:20:43.231Z,59.90
2023-09-08T14:23:11.140Z,60.80
2023-09-08T14:25:39.006Z,60.20
2023-09-08T14:28:08.146Z,60.70
2023-09-08T14:30:36.224Z,60.40
2023-09-08T14:33:04.519Z,60.60
2023-09-08T14:35:32.422Z,60.90
2023-09-08T14:38:00.231Z,59.70
2023-09-08T14:40:28.047Z,59.50
2023-09-08T14:42:55.920Z,59.50
2023-09-08T14:45:25.042Z,60.10
2023-09-08T14:47:52.891Z,59.20
2023-09-08T14:50:20.728Z,59.30
2023-09-08T14:52:48.539Z,59.50
2023-09-08T14:55:16.405Z,59.80
2023-09-08T14:57:44.282Z,61.10
2023-09-08T15:00:13.537Z,62.60
2023-09-08T15:02:42.647Z,64.60
2023-09-08T15:05:10.834Z,65.70
2023-09-08T15:07:38.676Z,65.60
2023-09-08T15:10:07.067Z,65.00
2023-09-08T15:12:34.929Z,65.30
2023-09-08T15:15:03.332Z,65.40
2023-09-08T15:17:31.226Z,66.00
2023-09-08T15:20:00.843Z,65.00
2023-09-08T15:22:28.647Z,64.00
2023-09-08T15:24:56.588Z,62.90
2023-09-08T15:27:24.507Z,63.10
2023-09-08T15:29:52.309Z,61.00
2023-09-08T15:32:20.168Z,60.20
2023-09-08T15:34:51.096Z,60.90
2023-09-08T15:37:20.232Z,60.70
2023-09-08T15:39:48.145Z,61.60
2023-09-08T15:42:16.096Z,61.90
2023-09-08T15:44:43.885Z,63.10
2023-09-08T15:47:11.652Z,62.40
2023-09-08T15:49:39.494Z,60.50
2023-09-08T15:52:15.860Z,59.60
2023-09-08T15:54:45.963Z,58.50
2023-09-08T15:57:13.751Z,57.00
2023-09-08T15:59:41.498Z,56.90
2023-09-08T16:02:09.384Z,56.30
2023-09-08T16:04:37.498Z,55.80
2023-09-08T16:07:05.642Z,54.90
2023-09-08T16:09:33.389Z,54.40
2023-09-08T16:12:02.526Z,54.50
2023-09-08T16:14:31.416Z,55.00
2023-09-08T16:16:59.198Z,54.90
2023-09-08T16:19:27.003Z,55.50
2023-09-08T16:21:54.848Z,55.80
2023-09-08T16:24:22.719Z,55.30
2023-09-08T16:26:50.647Z,54.90
2023-09-08T16:29:19.774Z,55.20
2023-09-08T16:31:47.616Z,54.30
2023-09-08T16:34:15.409Z,54.30
2023-09-08T16:36:43.234Z,54.10
2023-09-08T16:39:11.021Z,54.30
2023-09-08T16:41:38.812Z,55.20
2023-09-08T16:44:06.879Z,55.80
2023-09-08T16:46:36.705Z,55.90
2023-09-08T16:49:04.627Z,55.40
2023-09-08T16:51:32.412Z,55.80
2023-09-08T16:54:00.844Z,56.50
2023-09-08T16:56:28.773Z,57.00
2023-09-08T16:58:56.565Z,57.40
2023-09-08T17:01:24.405Z,57.50
2023-09-08T17:03:53.663Z,58.10
2023-09-08T17:06:21.555Z,59.20
2023-09-08T17:08:49.389Z,59.60
2023-09-08T17:11:19.342Z,60.20
2023-09-08T17:13:47.131Z,60.50
2023-09-08T17:16:14.932Z,61.30
2023-09-08T17:18:42.866Z,61.10
2023-09-08T17:21:11.986Z,61.60
2023-09-08T17:23:40.339Z,61.50
2023-09-08T17:26:08.835Z,61.50
2023-09-08T17:28:36.643Z,61.50
2023-09-08T17:31:05.740Z,61.70
2023-09-08T17:33:33.543Z,62.30
2023-09-08T17:36:01.351Z,62.20
2023-09-08T17:38:30.594Z,62.80
2023-09-08T17:41:00.427Z,63.30
2023-09-08T17:43:29.951Z,63.60
2023-09-08T17:45:57.955Z,63.70
2023-09-08T17:48:26.062Z,63.80
2023-09-08T17:50:53.931Z,64.20
2023-09-08T17:53:21.673Z,64.30
2023-09-08T17:55:51.383Z,64.70
2023-09-08T17:58:19.722Z,64.70
2023-09-08T18:00:49.268Z,65.00
2023-09-08T18:03:18.590Z,65.30
2023-09-08T18:05:47.652Z,65.50
2023-09-08T18:08:15.459Z,65.60
2023-09-08T18:10:43.194Z,65.70
2023-09-08T18:13:12.285Z,66.00
2023-09-08T18:15:40.089Z,66.30
2023-09-08T18:18:08.467Z,66.60
2023-09-08T18:20:36.330Z,66.80
2023-09-08T18:23:04.083Z,66.70
2023-09-08T18:25:31.851Z,67.10
2023-09-08T18:27:59.674Z,67.20
2023-09-08T18:30:28.860Z,67.50
2023-09-08T18:32:56.627Z,67.40
2023-09-08T18:35:24.433Z,67.60
2023-09-08T18:37:52.277Z,67.70
2023-09-08T18:40:20.036Z,67.90
2023-09-08T18:42:47.814Z,68.10
2023-09-08T18:45:15.787Z,68.30
2023-09-08T18:47:45.032Z,68.50
2023-09-08T18:50:13.270Z,68.60
2023-09-08T18:52:41.098Z,68.50
2023-09-08T18:55:09.633Z,68.90
2023-09-08T18:57:37.394Z,68.70
2023-09-08T19:00:07.101Z,68.80
2023-09-08T19:02:34.999Z,69.00
2023-09-08T19:05:05.628Z,69.10
2023-09-08T19:07:33.550Z,69.10
2023-09-08T19:10:02.196Z,68.90
2023-09-08T19:12:30.416Z,68.90
2023-09-08T19:14:58.437Z,68.90
2023-09-08T19:17:26.212Z,69.00
2023-09-08T19:19:53.933Z,69.00
2023-09-08T19:22:23.087Z,69.10
2023-09-08T19:24:51.984Z,69.10
2023-09-08T19:27:19.808Z,69.20
2023-09-08T19:29:49.810Z,69.30
2023-09-08T19:32:17.740Z,69.50
2023-09-08T19:34:45.518Z,69.90
2023-09-08T19:37:13.528Z,70.10
2023-09-08T19:39:42.768Z,70.70
2023-09-08T19:42:10.464Z,71.00
2023-09-08T19:44:38.245Z,70.90
2023-09-08T19:47:06.152Z,71.00
2023-09-08T19:49:34.039Z,71.10
2023-09-08T19:52:01.863Z,71.10
2023-09-08T19:54:30.557Z,71.40
2023-09-08T19:56:59.580Z,71.20
2023-09-08T19:59:27.282Z,71.40
2023-09-08T20:01:55.106Z,71.50
2023-09-08T20:04:23.033Z,71.50
2023-09-08T20:06:52.384Z,71.70
2023-09-08T20:09:20.136Z,71.70
2023-09-08T20:11:47.898Z,71.80
2023-09-08T20:14:16.951Z,72.00
2023-09-08T20:16:44.750Z,72.10
2023-09-08T20:19:12.700Z,72.10
2023-09-08T20:21:40.573Z,72.20
2023-09-08T20:24:08.706Z,72.30
2023-09-08T20:26:36.470Z,72.40
2023-09-08T20:29:04.233Z,72.60
2023-09-08T20:31:33.368Z,72.60
2023-09-08T20:34:01.156Z,72.70
2023-09-08T20:36:28.976Z,72.80
2023-09-08T20:38:56.840Z,73.00
2023-09-08T20:41:24.635Z,72.90
2023-09-08T20:43:52.387Z,73.00
2023-09-08T20:46:20.206Z,73.10
2023-09-08T20:48:49.327Z,73.20
2023-09-08T20:51:20.539Z,73.30
2023-09-08T20:53:48.264Z,73.30
2023-09-08T20:56:16.019Z,73.30
2023-09-08T20:58:44.149Z,73.50
2023-09-08T21:01:11.978Z,73.50
2023-09-08T21:03:40.452Z,73.60
2023-09-08T21:06:11.375Z,73.70
2023-09-08T21:08:39.084Z,73.80
2023-09-08T21:11:06.868Z,73.70
2023-09-08T21:13:35.371Z,73.80
2023-09-08T21:16:03.450Z,73.90
2023-09-08T21:18:31.236Z,73.90
2023-09-08T21:20:59.799Z,73.90
2023-09-08T21:23:29.534Z,74.10
2023-09-08T21:25:57.310Z,74.20
2023-09-08T21:28:25.078Z,74.20
2023-09-08T21:30:53.167Z,74.20
2023-09-08T21:33:21.707Z,74.30
2023-09-08T21:35:49.668Z,74.40
2023-09-08T21:38:17.846Z,74.60
2023-09-08T21:40:46.884Z,74.60
2023-09-08T21:43:14.604Z,74.70
2023-09-08T21:45:42.362Z,74.70
2023-09-08T21:48:10.189Z,74.70
2023-09-08T21:50:37.996Z,74.70
2023-09-08T21:53:05.779Z,74.70
2023-09-08T21:55:33.520Z,74.70
2023-09-08T21:58:02.678Z,74.80
2023-09-08T22:00:33.043Z,74.80
2023-09-08T22:03:01.006Z,74.70
2023-09-08T22:05:29.023Z,74.80
2023-09-08T22:07:57.233Z,75.00
2023-09-08T22:10:25.074Z,74.80
2023-09-08T22:12:52.894Z,74.90
2023-09-08T22:15:22.033Z,74.90
2023-09-08T22:17:51.361Z,74.90
2023-09-08T22:20:19.339Z,75.10
2023-09-08T22:22:47.102Z,75.20
2023-09-08T22:25:14.911Z,75.10
2023-09-08T22:27:42.872Z,75.10
2023-09-08T22:30:11.925Z,75.10
2023-09-08T22:32:41.252Z,75.30
2023-09-08T22:35:09.243Z,75.30
2023-09-08T22:37:37.057Z,75.30
2023-09-08T22:40:07.387Z,75.30
2023-09-08T22:42:35.278Z,75.30
2023-09-08T22:45:04.200Z,75.30
2023-09-08T22:47:32.064Z,75.30
2023-09-08T22:50:01.814Z,75.20
2023-09-08T22:52:30.181Z,75.40
2023-09-08T22:55:05.763Z,75.30
2023-09-08T22:57:40.673Z,75.50
2023-09-08T23:00:11.349Z,75.50
2023-09-08T23:02:39.543Z,75.40
2023-09-08T23:05:10.672Z,75.40
2023-09-08T23:07:38.578Z,75.50
2023-09-08T23:10:06.566Z,75.50
2023-09-08T23:12:34.375Z,75.60
2023-09-08T23:15:02.138Z,75.60
2023-09-08T23:17:29.999Z,75.60
2023-09-08T23:19:57.838Z,75.40
2023-09-08T23:22:27.010Z,75.60
2023-09-08T23:24:54.948Z,75.60
2023-09-08T23:27:22.780Z,76.10
2023-09-08T23:29:52.119Z,75.80
2023-09-08T23:32:19.832Z,75.80
2023-09-08T23:34:47.621Z,75.40
2023-09-08T23:37:15.364Z,75.30
2023-09-08T23:39:44.669Z,75.70
2023-09-08T23:42:12.405Z,75.60
2023-09-08T23:44:40.140Z,75.80
2023-09-08T23:47:08.356Z,75.70
2023-09-08T23:49:36.235Z,75.70
2023-09-08T23:52:04.100Z,75.60
2023-09-08T23:54:31.842Z,75.70
2023-09-08T23:57:02.490Z,75.60
2023-09-08T23:59:30.328Z,75.50
